createdAt,value
2022-08-10T00:01:02.092Z,23.85
2022-08-10T00:03:28.545Z,23.79
2022-08-10T00:05:56.530Z,23.74
2022-08-10T00:08:27.215Z,23.85
2022-08-10T00:10:55.071Z,23.72
2022-08-10T00:13:22.731Z,23.71
2022-08-10T00:15:53.495Z,23.69
2022-08-10T00:18:31.488Z,23.74
2022-08-10T00:21:02.103Z,23.74
2022-08-10T00:23:28.525Z,23.76
2022-08-10T00:25:54.943Z,23.75
2022-08-10T00:28:21.379Z,23.79
2022-08-10T00:30:47.882Z,23.67
2022-08-10T00:33:14.325Z,23.70
2022-08-10T00:35:40.749Z,23.62
2022-08-10T00:38:07.140Z,23.63
2022-08-10T00:40:37.092Z,23.74
2022-08-10T00:43:05.579Z,23.77
2022-08-10T00:45:31.984Z,23.53
2022-08-10T00:47:58.439Z,23.51
2022-08-10T00:50:24.954Z,23.58
2022-08-10T00:52:51.801Z,23.43
2022-08-10T00:55:19.156Z,23.50
2022-08-10T00:57:47.001Z,23.48
2022-08-10T01:00:22.709Z,23.39
2022-08-10T01:02:49.319Z,23.27
2022-08-10T01:05:19.343Z,23.56
2022-08-10T01:08:05.302Z,23.29
2022-08-10T01:10:50.279Z,23.59
2022-08-10T01:13:32.157Z,23.43
2022-08-10T01:16:28.290Z,23.47
2022-08-10T01:19:20.762Z,23.31
2022-08-10T01:22:24.589Z,23.37
2022-08-10T01:25:09.276Z,23.11
2022-08-10T01:28:13.301Z,22.97
2022-08-10T01:30:43.134Z,22.92
2022-08-10T01:33:13.013Z,23.24
2022-08-10T01:36:07.473Z,22.95
2022-08-10T01:38:43.633Z,22.65
2022-08-10T01:41:13.984Z,22.56
2022-08-10T01:43:58.410Z,22.38
2022-08-10T01:46:32.603Z,22.16
2022-08-10T01:49:01.668Z,22.19
2022-08-10T01:51:38.647Z,22.44
2022-08-10T01:54:12.635Z,22.22
2022-08-10T01:56:43.106Z,22.04
2022-08-10T01:59:15.538Z,21.79
2022-08-10T02:01:47.747Z,21.74
2022-08-10T02:04:16.977Z,21.83
2022-08-10T02:06:50.947Z,21.39
2022-08-10T02:09:22.234Z,21.16
2022-08-10T02:12:05.946Z,21.31
2022-08-10T02:14:55.609Z,21.29
2022-08-10T02:17:59.653Z,21.17
2022-08-10T02:20:33.603Z,21.20
2022-08-10T02:23:05.218Z,21.09
2022-08-10T02:25:40.581Z,20.97
2022-08-10T02:28:27.013Z,21.08
2022-08-10T02:30:59.400Z,20.88
2022-08-10T02:33:27.655Z,21.16
2022-08-10T02:35:56.169Z,20.68
2022-08-10T02:38:59.590Z,21.12
2022-08-10T02:45:12.117Z,20.79
2022-08-10T02:45:23.508Z,20.74
2022-08-10T02:47:28.701Z,20.55
2022-08-10T02:50:13.332Z,20.75
2022-08-10T02:52:47.661Z,20.83
2022-08-10T02:55:40.440Z,20.74
2022-08-10T02:58:17.103Z,20.68
2022-08-10T03:00:48.377Z,20.54
2022-08-10T03:03:21.203Z,20.35
2022-08-10T03:05:51.047Z,20.29
2022-08-10T03:08:22.573Z,20.25
2022-08-10T03:10:49.624Z,20.42
2022-08-10T03:13:18.601Z,20.56
2022-08-10T03:15:46.369Z,20.44
2022-08-10T03:18:14.190Z,20.27
2022-08-10T03:20:42.817Z,20.17
2022-08-10T03:23:18.626Z,20.11
2022-08-10T03:25:53.017Z,19.71
2022-08-10T03:28:23.022Z,19.64
2022-08-10T03:30:49.991Z,19.56
2022-08-10T03:33:17.697Z,19.38
2022-08-10T03:35:44.149Z,19.32
2022-08-10T03:38:30.599Z,19.32
2022-08-10T03:41:01.542Z,19.32
2022-08-10T03:43:28.900Z,19.05
2022-08-10T03:45:58.559Z,19.09
2022-08-10T03:48:32.348Z,18.89
2022-08-10T03:51:15.746Z,18.99
2022-08-10T03:54:06.230Z,18.91
2022-08-10T03:56:32.431Z,18.87
2022-08-10T03:58:59.841Z,18.78
2022-08-10T04:02:42.233Z,18.57
2022-08-10T04:04:17.866Z,18.63
2022-08-10T04:06:51.410Z,18.52
2022-08-10T04:09:21.113Z,18.61
2022-08-10T04:11:47.562Z,18.55
2022-08-10T04:14:35.707Z,18.71
2022-08-10T04:17:00.513Z,18.54
2022-08-10T04:19:28.393Z,18.67
2022-08-10T04:22:08.782Z,18.59
2022-08-10T04:24:37.938Z,18.33
2022-08-10T04:27:05.002Z,18.36
2022-08-10T04:29:31.411Z,18.58
2022-08-10T04:31:58.138Z,18.55
2022-08-10T04:34:31.695Z,18.79
2022-08-10T04:37:04.339Z,18.69
2022-08-10T04:39:33.388Z,18.59
2022-08-10T04:42:00.033Z,18.31
2022-08-10T04:44:26.473Z,18.35
2022-08-10T04:46:57.811Z,18.30
2022-08-10T04:49:54.747Z,18.37
2022-08-10T04:52:12.453Z,18.39
2022-08-10T04:54:38.883Z,18.86
2022-08-10T04:57:06.264Z,19.91
2022-08-10T04:59:32.821Z,20.77
2022-08-10T05:02:22.415Z,21.10
2022-08-10T05:04:45.672Z,21.39
2022-08-10T05:07:15.821Z,21.83
2022-08-10T05:10:01.474Z,22.16
2022-08-10T05:12:32.471Z,22.26
2022-08-10T05:15:02.867Z,22.15
2022-08-10T05:17:29.372Z,22.47
2022-08-10T05:20:03.305Z,22.65
2022-08-10T05:22:34.699Z,22.58
2022-08-10T05:25:01.229Z,23.04
2022-08-10T05:27:27.711Z,23.08
2022-08-10T05:30:02.469Z,23.25
2022-08-10T05:32:31.388Z,23.43
2022-08-10T05:34:57.962Z,23.68
2022-08-10T05:38:09.952Z,23.67
2022-08-10T05:40:12.016Z,23.55
2022-08-10T05:42:39.579Z,23.75
2022-08-10T05:45:09.351Z,23.94
2022-08-10T05:48:55.303Z,24.10
2022-08-10T05:50:27.851Z,24.02
2022-08-10T05:52:54.833Z,24.26
2022-08-10T05:55:23.387Z,24.08
2022-08-10T05:57:51.489Z,24.14
2022-08-10T06:00:36.789Z,24.48
2022-08-10T06:03:08.241Z,24.57
2022-08-10T06:05:39.379Z,24.79
2022-08-10T06:08:13.638Z,25.04
2022-08-10T06:12:24.436Z,24.87
2022-08-10T06:13:57.248Z,24.99
2022-08-10T06:16:27.409Z,25.19
2022-08-10T06:18:55.057Z,25.32
2022-08-10T06:21:22.005Z,25.25
2022-08-10T06:23:49.823Z,25.03
2022-08-10T06:26:21.011Z,25.07
2022-08-10T06:29:03.556Z,25.08
2022-08-10T06:31:48.521Z,25.10
2022-08-10T06:34:20.473Z,24.90
2022-08-10T06:36:47.695Z,25.43
2022-08-10T06:39:32.478Z,25.27
2022-08-10T06:42:15.408Z,25.26
2022-08-10T06:44:54.561Z,25.19
2022-08-10T06:47:26.708Z,25.30
2022-08-10T06:49:59.599Z,25.54
2022-08-10T06:52:28.570Z,25.73
2022-08-10T06:54:57.253Z,25.43
2022-08-10T06:57:28.913Z,25.55
2022-08-10T06:59:58.715Z,25.29
2022-08-10T07:02:37.612Z,25.39
2022-08-10T07:05:08.593Z,25.33
2022-08-10T07:07:38.697Z,25.28
2022-08-10T07:10:06.761Z,25.49
2022-08-10T07:12:36.547Z,25.51
2022-08-10T07:15:04.767Z,25.53
2022-08-10T07:17:36.007Z,25.72
2022-08-10T07:20:09.295Z,25.85
2022-08-10T07:23:26.910Z,25.72
2022-08-10T07:25:27.038Z,25.89
2022-08-10T07:28:00.735Z,25.61
2022-08-10T07:30:30.375Z,25.72
2022-08-10T07:32:58.583Z,25.66
2022-08-10T07:35:28.359Z,26.12
2022-08-10T07:37:59.671Z,25.96
2022-08-10T07:40:26.720Z,26.11
2022-08-10T07:42:57.838Z,26.15
2022-08-10T07:45:28.344Z,25.89
2022-08-10T07:48:09.798Z,25.79
2022-08-10T07:50:39.491Z,26.24
2022-08-10T07:53:10.089Z,26.54
2022-08-10T07:56:02.234Z,26.67
2022-08-10T07:58:31.423Z,26.66
2022-08-10T08:01:00.042Z,27.01
2022-08-10T08:03:29.360Z,26.73
2022-08-10T08:06:02.842Z,27.05
2022-08-10T08:08:33.440Z,26.62
2022-08-10T08:11:03.036Z,26.95
2022-08-10T08:13:31.002Z,26.93
2022-08-10T08:16:16.775Z,26.98
2022-08-10T08:19:03.988Z,27.02
2022-08-10T08:24:08.457Z,26.95
2022-08-10T08:24:32.992Z,27.08
2022-08-10T08:27:02.949Z,27.39
2022-08-10T08:29:33.127Z,27.39
2022-08-10T08:32:03.407Z,27.28
2022-08-10T08:34:36.797Z,27.30
2022-08-10T08:37:04.672Z,27.42
2022-08-10T08:39:33.149Z,27.40
2022-08-10T08:42:30.455Z,27.60
2022-08-10T08:44:59.819Z,27.92
2022-08-10T08:48:04.167Z,27.15
2022-08-10T08:50:45.813Z,27.66
2022-08-10T08:53:22.433Z,27.84
2022-08-10T08:56:06.910Z,27.72
2022-08-10T08:58:51.953Z,27.73
2022-08-10T09:01:24.499Z,28.14
2022-08-10T09:04:34.243Z,28.23
2022-08-10T09:07:59.758Z,27.87
2022-08-10T09:10:39.638Z,27.78
2022-08-10T09:13:29.434Z,28.21
2022-08-10T09:16:02.090Z,28.28
2022-08-10T09:18:51.726Z,28.49
2022-08-10T09:22:12.913Z,28.58
2022-08-10T09:24:58.642Z,28.98
2022-08-10T09:27:39.584Z,29.43
2022-08-10T09:30:12.678Z,29.26
2022-08-10T09:36:15.039Z,28.93
2022-08-10T09:36:26.780Z,29.22
2022-08-10T09:39:07.993Z,28.86
2022-08-10T09:41:53.560Z,29.01
2022-08-10T09:44:29.062Z,29.16
2022-08-10T09:47:14.384Z,28.76
2022-08-10T09:50:04.783Z,29.27
2022-08-10T09:52:59.218Z,29.23
2022-08-10T09:56:18.045Z,29.58
2022-08-10T09:58:48.953Z,28.86
2022-08-10T10:02:03.919Z,28.92
2022-08-10T10:04:26.319Z,28.98
2022-08-10T10:07:05.641Z,29.26
2022-08-10T10:09:42.940Z,28.82
2022-08-10T10:12:26.026Z,29.11
2022-08-10T10:15:24.398Z,29.08
2022-08-10T10:18:10.103Z,28.97
2022-08-10T10:20:51.133Z,29.56
2022-08-10T10:24:21.224Z,29.31
2022-08-10T10:26:48.259Z,29.34
2022-08-10T10:29:57.929Z,29.30
2022-08-10T10:32:37.386Z,29.29
2022-08-10T10:35:14.991Z,29.67
2022-08-10T10:38:02.134Z,29.40
2022-08-10T10:40:42.167Z,29.80
2022-08-10T10:43:26.285Z,29.67
2022-08-10T10:46:32.267Z,29.68
2022-08-10T10:48:58.643Z,30.32
2022-08-10T10:51:43.349Z,29.79
2022-08-10T10:54:43.828Z,29.74
2022-08-10T10:57:19.278Z,29.59
2022-08-10T10:59:57.597Z,29.54
2022-08-10T11:02:54.519Z,29.75
2022-08-10T11:05:54.220Z,29.72
2022-08-10T11:08:29.438Z,29.57
2022-08-10T11:11:02.710Z,29.86
2022-08-10T11:14:26.144Z,29.31
2022-08-10T11:16:57.537Z,29.67
2022-08-10T11:20:04.474Z,30.01
2022-08-10T11:23:07.933Z,30.01
2022-08-10T11:25:40.980Z,29.96
2022-08-10T11:28:21.814Z,29.66
2022-08-10T11:31:03.386Z,29.90
2022-08-10T11:34:47.047Z,30.08
2022-08-10T11:37:15.579Z,30.35
2022-08-10T11:39:48.833Z,29.90
2022-08-10T11:42:35.796Z,30.00
2022-08-10T11:45:07.995Z,29.91
2022-08-10T11:47:54.485Z,30.38
2022-08-10T11:50:28.415Z,30.02
2022-08-10T11:53:36.642Z,30.26
2022-08-10T11:56:11.082Z,30.19
2022-08-10T11:59:00.107Z,30.17
2022-08-10T12:01:30.910Z,30.12
2022-08-10T12:04:07.411Z,30.56
2022-08-10T12:06:55.239Z,30.96
2022-08-10T12:10:07.080Z,30.47
2022-08-10T12:12:11.424Z,30.31
2022-08-10T12:14:53.388Z,30.31
2022-08-10T12:17:31.069Z,30.49
2022-08-10T12:20:10.637Z,30.53
2022-08-10T12:23:04.756Z,30.25
2022-08-10T12:25:59.158Z,30.40
2022-08-10T12:28:50.671Z,30.68
2022-08-10T12:31:25.040Z,30.38
2022-08-10T12:34:05.279Z,30.42
2022-08-10T12:36:46.957Z,30.56
2022-08-10T12:39:21.985Z,30.37
2022-08-10T12:42:00.472Z,30.69
2022-08-10T12:44:42.152Z,30.67
2022-08-10T12:47:35.399Z,30.94
2022-08-10T12:50:29.600Z,30.70
2022-08-10T12:53:27.481Z,31.28
2022-08-10T12:55:55.502Z,31.45
2022-08-10T12:59:00.208Z,30.83
2022-08-10T13:01:16.540Z,31.37
2022-08-10T13:04:20.414Z,30.84
2022-08-10T13:06:36.879Z,31.06
2022-08-10T13:09:09.274Z,31.38
2022-08-10T13:12:35.007Z,31.20
2022-08-10T13:14:52.987Z,31.41
2022-08-10T13:17:32.532Z,30.75
2022-08-10T13:20:16.047Z,30.78
2022-08-10T13:22:44.181Z,30.98
2022-08-10T13:25:12.495Z,30.77
2022-08-10T13:28:01.440Z,30.98
2022-08-10T13:30:37.581Z,30.98
2022-08-10T13:33:06.702Z,30.84
2022-08-10T13:35:34.664Z,31.23
2022-08-10T13:38:03.612Z,31.45
2022-08-10T13:40:32.099Z,31.26
2022-08-10T13:43:01.278Z,31.22
2022-08-10T13:45:28.812Z,31.17
2022-08-10T13:48:09.404Z,31.46
2022-08-10T13:50:38.776Z,31.46
2022-08-10T13:53:13.986Z,31.54
2022-08-10T13:55:57.291Z,31.66
2022-08-10T13:58:35.919Z,31.64
2022-08-10T14:01:10.220Z,31.28
2022-08-10T14:03:39.782Z,31.47
2022-08-10T14:06:11.704Z,31.52
2022-08-10T14:08:39.365Z,31.47
2022-08-10T14:11:12.647Z,31.36
2022-08-10T14:14:01.487Z,31.39
2022-08-10T14:16:29.112Z,31.72
2022-08-10T14:18:59.744Z,31.50
2022-08-10T14:21:27.726Z,31.68
2022-08-10T14:23:54.440Z,31.56
2022-08-10T14:26:31.442Z,31.22
2022-08-10T14:29:03.685Z,31.29
2022-08-10T14:31:33.721Z,31.24
2022-08-10T14:34:04.063Z,31.36
2022-08-10T14:36:57.285Z,31.40
2022-08-10T14:39:28.873Z,31.21
2022-08-10T14:42:00.868Z,31.32
2022-08-10T14:44:44.953Z,31.57
2022-08-10T14:47:54.056Z,31.57
2022-08-10T14:50:01.890Z,31.59
2022-08-10T14:52:30.883Z,31.64
2022-08-10T14:55:04.753Z,31.88
2022-08-10T14:58:20.243Z,31.89
2022-08-10T15:00:36.228Z,31.83
2022-08-10T15:03:11.194Z,31.95
2022-08-10T15:05:54.306Z,31.42
2022-08-10T15:08:27.571Z,31.25
2022-08-10T15:10:58.211Z,31.08
2022-08-10T15:13:35.010Z,31.33
2022-08-10T15:16:13.844Z,31.33
2022-08-10T15:18:57.902Z,31.40
2022-08-10T15:21:42.979Z,31.56
2022-08-10T15:24:37.052Z,31.72
2022-08-10T15:27:09.987Z,31.39
2022-08-10T15:29:56.595Z,31.51
2022-08-10T15:32:52.461Z,31.38
2022-08-10T15:35:50.640Z,31.47
2022-08-10T15:38:26.771Z,31.26
2022-08-10T15:41:02.419Z,31.36
2022-08-10T15:43:36.939Z,31.22
2022-08-10T15:46:22.809Z,31.09
2022-08-10T15:49:01.045Z,31.21
2022-08-10T15:51:53.823Z,31.53
2022-08-10T15:54:33.525Z,31.42
2022-08-10T15:57:08.153Z,31.61
2022-08-10T15:59:47.619Z,31.75
2022-08-10T16:02:25.227Z,31.39
2022-08-10T16:06:01.014Z,31.47
2022-08-10T16:08:24.045Z,30.95
2022-08-10T16:11:03.004Z,31.42
2022-08-10T16:13:59.980Z,31.39
2022-08-10T16:16:20.433Z,31.42
2022-08-10T16:18:52.283Z,30.92
2022-08-10T16:21:24.513Z,31.19
2022-08-10T16:24:15.143Z,31.29
2022-08-10T16:26:46.670Z,31.06
2022-08-10T16:29:17.495Z,30.91
2022-08-10T16:31:57.189Z,30.83
2022-08-10T16:34:27.317Z,30.91
2022-08-10T16:37:06.982Z,30.74
2022-08-10T16:39:58.530Z,31.00
2022-08-10T16:42:31.060Z,30.93
2022-08-10T16:45:13.559Z,30.93
2022-08-10T16:47:49.020Z,30.78
2022-08-10T16:50:26.894Z,30.81
2022-08-10T16:52:55.477Z,30.85
2022-08-10T16:55:48.321Z,30.72
2022-08-10T16:58:13.993Z,30.65
2022-08-10T17:00:42.761Z,30.72
2022-08-10T17:03:22.710Z,30.67
2022-08-10T17:06:11.441Z,30.67
2022-08-10T17:08:48.993Z,30.67
2022-08-10T17:11:17.524Z,30.65
2022-08-10T17:13:48.093Z,30.42
2022-08-10T17:16:17.378Z,30.36
2022-08-10T17:18:46.999Z,30.47
2022-08-10T17:21:28.433Z,30.33
2022-08-10T17:23:57.958Z,30.38
2022-08-10T17:26:35.311Z,30.44
2022-08-10T17:29:54.178Z,30.41
2022-08-10T17:32:05.671Z,30.41
2022-08-10T17:34:44.311Z,30.40
2022-08-10T17:37:20.353Z,30.34
2022-08-10T17:39:55.241Z,30.32
2022-08-10T17:42:23.309Z,30.26
2022-08-10T17:44:53.356Z,30.21
2022-08-10T17:47:23.667Z,30.18
2022-08-10T17:50:00.780Z,30.16
2022-08-10T17:52:31.572Z,30.14
2022-08-10T17:55:05.105Z,30.00
2022-08-10T17:57:40.286Z,30.07
2022-08-10T18:00:15.405Z,30.04
2022-08-10T18:02:48.604Z,29.99
2022-08-10T18:05:16.598Z,29.99
2022-08-10T18:07:51.557Z,30.04
2022-08-10T18:10:21.414Z,29.85
2022-08-10T18:12:53.029Z,29.73
2022-08-10T18:15:23.399Z,29.63
2022-08-10T18:17:59.257Z,29.62
2022-08-10T18:20:32.676Z,29.73
2022-08-10T18:23:00.181Z,29.35
2022-08-10T18:25:33.537Z,29.20
2022-08-10T18:28:05.077Z,29.20
2022-08-10T18:30:36.276Z,28.99
2022-08-10T18:33:09.144Z,28.88
2022-08-10T18:35:36.808Z,28.74
2022-08-10T18:38:06.675Z,28.42
2022-08-10T18:40:36.676Z,28.49
2022-08-10T18:44:04.466Z,28.15
2022-08-10T18:45:56.539Z,28.01
2022-08-10T18:48:27.813Z,27.92
2022-08-10T18:50:57.435Z,27.64
2022-08-10T18:53:34.467Z,27.17
2022-08-10T18:56:31.567Z,26.69
2022-08-10T18:59:30.888Z,26.61
2022-08-10T19:02:26.249Z,26.26
2022-08-10T19:05:31.478Z,26.27
2022-08-10T19:08:31.454Z,25.98
2022-08-10T19:11:32.422Z,25.99
2022-08-10T19:14:06.403Z,25.97
2022-08-10T19:16:54.923Z,25.59
2022-08-10T19:19:44.966Z,25.27
2022-08-10T19:22:21.243Z,25.25
2022-08-10T19:25:01.402Z,25.00
2022-08-10T19:27:49.080Z,24.98
2022-08-10T19:30:17.663Z,25.08
2022-08-10T19:32:52.974Z,24.91
2022-08-10T19:35:22.813Z,24.77
2022-08-10T19:38:16.660Z,24.73
2022-08-10T19:41:12.606Z,24.52
2022-08-10T19:44:00.047Z,24.33
2022-08-10T19:46:51.774Z,24.52
2022-08-10T19:49:39.595Z,24.64
2022-08-10T19:52:19.547Z,24.46
2022-08-10T19:55:06.172Z,24.35
2022-08-10T19:57:49.715Z,23.97
2022-08-10T20:00:22.774Z,24.14
2022-08-10T20:03:07.508Z,24.11
2022-08-10T20:06:18.945Z,23.85
2022-08-10T20:08:40.971Z,23.58
2022-08-10T20:11:46.462Z,24.02
2022-08-10T20:14:21.529Z,23.91
2022-08-10T20:16:49.795Z,23.50
2022-08-10T20:19:53.029Z,23.49
2022-08-10T20:22:29.614Z,23.50
2022-08-10T20:25:14.338Z,23.51
2022-08-10T20:27:59.413Z,23.39
2022-08-10T20:30:32.300Z,23.80
2022-08-10T20:33:08.008Z,23.72
2022-08-10T20:35:40.180Z,23.80
2022-08-10T20:38:14.952Z,23.69
2022-08-10T20:40:47.202Z,23.67
2022-08-10T20:43:26.616Z,23.72
2022-08-10T20:46:15.567Z,24.00
2022-08-10T20:49:04.348Z,24.26
2022-08-10T20:51:58.635Z,24.23
2022-08-10T20:54:33.602Z,24.31
2022-08-10T20:57:07.030Z,24.42
2022-08-10T21:00:07.243Z,24.43
2022-08-10T21:03:06.957Z,24.57
2022-08-10T21:05:52.803Z,24.87
2022-08-10T21:08:42.549Z,24.95
2022-08-10T21:11:21.014Z,25.02
2022-08-10T21:13:54.218Z,25.08
2022-08-10T21:16:47.298Z,25.06
2022-08-10T21:19:53.585Z,25.26
2022-08-10T21:22:29.405Z,25.20
2022-08-10T21:25:02.188Z,25.04
2022-08-10T21:27:56.364Z,25.06
2022-08-10T21:30:57.246Z,24.95
2022-08-10T21:33:36.366Z,25.13
2022-08-10T21:36:17.118Z,25.03
2022-08-10T21:38:57.252Z,25.16
2022-08-10T21:42:22.728Z,25.02
2022-08-10T21:45:58.131Z,25.00
2022-08-10T21:49:16.368Z,24.83
2022-08-10T21:52:17.863Z,24.87
2022-08-10T21:59:01.813Z,24.64
2022-08-10T22:01:55.712Z,24.64
2022-08-10T22:04:45.695Z,24.77
2022-08-10T22:07:36.060Z,24.81
2022-08-10T22:10:25.622Z,24.89
2022-08-10T22:13:12.581Z,24.74
2022-08-10T22:16:11.521Z,24.79
2022-08-10T22:19:02.387Z,24.61
2022-08-10T22:22:02.112Z,24.59
2022-08-10T22:25:05.069Z,24.47
2022-08-10T22:28:02.058Z,24.45
2022-08-10T22:31:22.727Z,24.43
2022-08-10T22:31:28.110Z,24.73
2022-08-10T22:34:23.150Z,24.41
2022-08-10T22:37:16.999Z,24.34
2022-08-10T22:40:21.019Z,24.09
2022-08-10T22:43:11.919Z,24.02
2022-08-10T22:46:11.044Z,23.94
2022-08-10T22:49:00.843Z,23.78
2022-08-10T22:51:47.240Z,23.78
2022-08-10T22:54:40.017Z,23.71
2022-08-10T22:57:30.382Z,23.62
2022-08-10T22:59:57.640Z,23.53
2022-08-10T23:02:28.861Z,23.69
2022-08-10T23:05:16.806Z,23.55
2022-08-10T23:07:50.685Z,23.74
2022-08-10T23:10:21.877Z,23.94
2022-08-10T23:12:59.032Z,23.83
2022-08-10T23:15:56.079Z,23.64
2022-08-10T23:19:11.699Z,23.79
2022-08-10T23:22:03.970Z,23.74
2022-08-10T23:24:51.641Z,23.62
2022-08-10T23:27:37.519Z,23.49
2022-08-10T23:30:17.691Z,23.68
2022-08-10T23:32:59.482Z,23.38
2022-08-10T23:36:29.498Z,23.27
2022-08-10T23:38:16.687Z,23.05
2022-08-10T23:40:46.450Z,22.97
2022-08-10T23:43:32.098Z,22.65
2022-08-10T23:46:08.948Z,22.69
2022-08-10T23:48:38.295Z,22.70
2022-08-10T23:51:16.455Z,22.44
2022-08-10T23:53:46.309Z,22.17
2022-08-10T23:56:16.707Z,22.20
2022-08-10T23:58:47.823Z,22.15
